sensor_id;sensor_type;location;lat;lon;timestamp;pressure;altitude;pressure_sealevel;temperature;humidity
70072;BME280;57434;42.794;23.302;2023-03-05T00:00:39;95224.75;;;5.47;80.72
70072;BME280;57434;42.794;23.302;2023-03-05T00:01:40;95224.91;;;5.43;80.87
70072;BME280;57434;42.794;23.302;2023-03-05T00:02:43;95225.38;;;5.41;81.04
70072;BME280;57434;42.794;23.302;2023-03-05T00:03:45;95230.66;;;5.30;81.18
70072;BME280;57434;42.794;23.302;2023-03-05T00:04:47;95234.03;;;5.43;81.15
70072;BME280;57434;42.794;23.302;2023-03-05T00:05:55;95221.97;;;5.47;81.26
70072;BME280;57434;42.794;23.302;2023-03-05T00:06:57;95040.88;;;4.00;80.84
70072;BME280;57434;42.794;23.302;2023-03-05T00:07:59;95247.31;;;5.49;81.06
70072;BME280;57434;42.794;23.302;2023-03-05T00:09:02;95218.75;;;5.30;80.92
70072;BME280;57434;42.794;23.302;2023-03-05T00:10:04;95187.09;;;5.27;80.56
70072;BME280;57434;42.794;23.302;2023-03-05T00:11:09;95188.53;;;5.04;80.42
70072;BME280;57434;42.794;23.302;2023-03-05T00:12:12;95211.13;;;5.49;80.60
70072;BME280;57434;42.794;23.302;2023-03-05T00:13:14;95211.75;;;5.43;80.22
70072;BME280;57434;42.794;23.302;2023-03-05T00:14:15;95221.22;;;5.37;79.89
70072;BME280;57434;42.794;23.302;2023-03-05T00:15:17;95193.09;;;5.35;79.71
70072;BME280;57434;42.794;23.302;2023-03-05T00:16:20;95196.16;;;5.37;79.61
70072;BME280;57434;42.794;23.302;2023-03-05T00:17:23;95207.75;;;5.44;79.54
70072;BME280;57434;42.794;23.302;2023-03-05T00:18:25;95198.41;;;5.24;79.51
70072;BME280;57434;42.794;23.302;2023-03-05T00:19:27;95214.84;;;5.45;79.67
70072;BME280;57434;42.794;23.302;2023-03-05T00:20:29;95206.81;;;5.48;79.63
70072;BME280;57434;42.794;23.302;2023-03-05T00:21:37;95197.56;;;5.41;79.62
70072;BME280;57434;42.794;23.302;2023-03-05T00:22:39;95191.38;;;5.37;79.48
70072;BME280;57434;42.794;23.302;2023-03-05T00:23:41;95205.25;;;5.47;79.48
70072;BME280;57434;42.794;23.302;2023-03-05T00:24:43;95182.72;;;5.35;79.89
70072;BME280;57434;42.794;23.302;2023-03-05T00:25:45;95144.66;;;5.08;80.32
70072;BME280;57434;42.794;23.302;2023-03-05T00:26:47;95191.06;;;5.35;80.59
70072;BME280;57434;42.794;23.302;2023-03-05T00:27:49;95127.84;;;5.03;80.77
70072;BME280;57434;42.794;23.302;2023-03-05T00:28:51;95184.09;;;5.40;80.36
70072;BME280;57434;42.794;23.302;2023-03-05T00:29:53;95196.75;;;5.50;80.10
70072;BME280;57434;42.794;23.302;2023-03-05T00:30:59;95204.47;;;5.55;80.02
70072;BME280;57434;42.794;23.302;2023-03-05T00:32:01;95166.50;;;5.34;79.99
70072;BME280;57434;42.794;23.302;2023-03-05T00:33:03;95191.31;;;5.56;79.57
70072;BME280;57434;42.794;23.302;2023-03-05T00:34:08;95165.88;;;5.39;79.80
70072;BME280;57434;42.794;23.302;2023-03-05T00:35:12;95185.16;;;5.52;79.99
70072;BME280;57434;42.794;23.302;2023-03-05T00:36:13;95199.06;;;5.52;79.93
70072;BME280;57434;42.794;23.302;2023-03-05T00:37:16;95177.78;;;5.39;80.22
70072;BME280;57434;42.794;23.302;2023-03-05T00:38:18;95181.16;;;5.43;80.26
70072;BME280;57434;42.794;23.302;2023-03-05T00:39:20;95184.72;;;5.44;80.28
70072;BME280;57434;42.794;23.302;2023-03-05T00:40:23;95193.66;;;5.48;80.46
70072;BME280;57434;42.794;23.302;2023-03-05T00:41:25;95165.91;;;5.30;80.62
70072;BME280;57434;42.794;23.302;2023-03-05T00:42:27;95176.41;;;5.35;80.77
70072;BME280;57434;42.794;23.302;2023-03-05T00:43:30;95194.31;;;5.34;81.04
70072;BME280;57434;42.794;23.302;2023-03-05T00:44:31;95171.66;;;5.26;81.27
70072;BME280;57434;42.794;23.302;2023-03-05T00:45:34;95164.19;;;5.32;81.00
70072;BME280;57434;42.794;23.302;2023-03-05T00:46:36;95173.44;;;5.38;80.90
70072;BME280;57434;42.794;23.302;2023-03-05T00:47:38;95186.97;;;5.22;80.98
70072;BME280;57434;42.794;23.302;2023-03-05T00:48:40;95176.25;;;5.29;80.97
70072;BME280;57434;42.794;23.302;2023-03-05T00:49:42;95181.19;;;5.34;80.94
70072;BME280;57434;42.794;23.302;2023-03-05T00:50:45;95191.06;;;5.35;81.03
70072;BME280;57434;42.794;23.302;2023-03-05T00:51:47;95125.41;;;4.96;80.94
70072;BME280;57434;42.794;23.302;2023-03-05T00:52:49;95161.03;;;5.16;80.94
70072;BME280;57434;42.794;23.302;2023-03-05T00:53:51;95146.03;;;5.13;81.24
70072;BME280;57434;42.794;23.302;2023-03-05T00:54:53;95185.38;;;5.30;81.23
70072;BME280;57434;42.794;23.302;2023-03-05T00:55:55;95176.16;;;5.24;81.78
70072;BME280;57434;42.794;23.302;2023-03-05T00:56:57;95141.94;;;4.99;82.28
70072;BME280;57434;42.794;23.302;2023-03-05T00:57:59;95162.41;;;5.20;82.13
70072;BME280;57434;42.794;23.302;2023-03-05T00:59:00;95145.44;;;5.09;81.83
70072;BME280;57434;42.794;23.302;2023-03-05T01:00:04;95180.88;;;5.32;81.81
70072;BME280;57434;42.794;23.302;2023-03-05T01:01:07;95174.84;;;5.34;81.59
70072;BME280;57434;42.794;23.302;2023-03-05T01:02:09;95169.75;;;5.32;81.61
70072;BME280;57434;42.794;23.302;2023-03-05T01:03:11;95171.59;;;5.35;81.44
70072;BME280;57434;42.794;23.302;2023-03-05T01:04:13;95172.84;;;5.34;81.28
70072;BME280;57434;42.794;23.302;2023-03-05T01:05:15;95175.16;;;5.36;81.51
70072;BME280;57434;42.794;23.302;2023-03-05T01:06:17;95171.47;;;5.30;81.50
70072;BME280;57434;42.794;23.302;2023-03-05T01:07:19;95166.41;;;5.28;81.60
70072;BME280;57434;42.794;23.302;2023-03-05T01:08:21;95166.09;;;5.26;82.13
70072;BME280;57434;42.794;23.302;2023-03-05T01:09:23;95162.72;;;5.22;82.16
70072;BME280;57434;42.794;23.302;2023-03-05T01:10:26;95161.94;;;5.22;82.55
70072;BME280;57434;42.794;23.302;2023-03-05T01:11:28;95162.91;;;5.09;82.99
70072;BME280;57434;42.794;23.302;2023-03-05T01:12:30;95125.13;;;4.75;83.07
70072;BME280;57434;42.794;23.302;2023-03-05T01:13:32;95124.09;;;4.64;83.11
70072;BME280;57434;42.794;23.302;2023-03-05T01:14:34;95129.19;;;4.56;83.50
70072;BME280;57434;42.794;23.302;2023-03-05T01:15:36;95090.03;;;4.27;83.65
70072;BME280;57434;42.794;23.302;2023-03-05T01:16:38;95143.06;;;4.56;84.03
70072;BME280;57434;42.794;23.302;2023-03-05T01:17:39;95160.97;;;4.73;84.29
70072;BME280;57434;42.794;23.302;2023-03-05T01:18:41;95082.19;;;4.16;84.16
70072;BME280;57434;42.794;23.302;2023-03-05T01:19:43;95010.84;;;3.89;84.21
70072;BME280;57434;42.794;23.302;2023-03-05T01:20:46;95007.59;;;3.82;83.93
70072;BME280;57434;42.794;23.302;2023-03-05T01:21:48;95143.22;;;4.71;84.23
70072;BME280;57434;42.794;23.302;2023-03-05T01:22:50;95156.31;;;4.79;84.07
70072;BME280;57434;42.794;23.302;2023-03-05T01:23:52;95110.38;;;4.51;84.03
70072;BME280;57434;42.794;23.302;2023-03-05T01:24:53;95150.78;;;4.70;84.17
70072;BME280;57434;42.794;23.302;2023-03-05T01:25:57;94969.25;;;3.43;84.21
70072;BME280;57434;42.794;23.302;2023-03-05T01:26:59;95068.00;;;4.05;84.37
70072;BME280;57434;42.794;23.302;2023-03-05T01:28:01;95149.88;;;4.64;84.50
70072;BME280;57434;42.794;23.302;2023-03-05T01:29:03;95010.53;;;3.60;84.29
70072;BME280;57434;42.794;23.302;2023-03-05T01:30:06;95155.88;;;4.63;84.45
70072;BME280;57434;42.794;23.302;2023-03-05T01:31:09;95130.91;;;4.44;84.54
70072;BME280;57434;42.794;23.302;2023-03-05T01:32:11;95146.94;;;4.59;84.86
70072;BME280;57434;42.794;23.302;2023-03-05T01:33:13;95148.47;;;4.69;84.80
70072;BME280;57434;42.794;23.302;2023-03-05T01:34:15;95156.81;;;4.69;84.91
70072;BME280;57434;42.794;23.302;2023-03-05T01:35:19;95158.34;;;4.70;84.72
70072;BME280;57434;42.794;23.302;2023-03-05T01:36:22;95151.09;;;4.72;84.87
70072;BME280;57434;42.794;23.302;2023-03-05T01:37:24;95152.59;;;4.83;84.92
70072;BME280;57434;42.794;23.302;2023-03-05T01:38:27;95155.09;;;4.90;84.79
70072;BME280;57434;42.794;23.302;2023-03-05T01:39:29;95149.50;;;4.99;84.51
70072;BME280;57434;42.794;23.302;2023-03-05T01:40:31;95156.25;;;5.07;84.04
70072;BME280;57434;42.794;23.302;2023-03-05T01:41:33;95153.16;;;5.14;83.45
70072;BME280;57434;42.794;23.302;2023-03-05T01:42:35;95075.06;;;4.42;82.55
70072;BME280;57434;42.794;23.302;2023-03-05T01:43:38;94919.78;;;3.60;82.05
70072;BME280;57434;42.794;23.302;2023-03-05T01:44:59;95111.22;;;4.94;82.16
70072;BME280;57434;42.794;23.302;2023-03-05T01:46:50;95175.84;;;5.22;82.21
70072;BME280;57434;42.794;23.302;2023-03-05T01:47:45;95032.63;;;4.42;82.07
70072;BME280;57434;42.794;23.302;2023-03-05T01:48:53;95142.00;;;5.23;81.95
70072;BME280;57434;42.794;23.302;2023-03-05T01:49:57;95145.09;;;5.25;81.42
70072;BME280;57434;42.794;23.302;2023-03-05T01:50:59;95150.75;;;5.31;81.32
70072;BME280;57434;42.794;23.302;2023-03-05T01:53:12;95156.06;;;5.20;80.21
70072;BME280;57434;42.794;23.302;2023-03-05T01:54:16;95157.00;;;5.17;80.20
70072;BME280;57434;42.794;23.302;2023-03-05T01:55:21;95140.03;;;5.05;80.12
70072;BME280;57434;42.794;23.302;2023-03-05T01:56:25;95146.22;;;5.09;80.38
70072;BME280;57434;42.794;23.302;2023-03-05T01:57:37;95152.88;;;5.03;80.71
70072;BME280;57434;42.794;23.302;2023-03-05T01:58:40;95151.63;;;5.04;80.87
70072;BME280;57434;42.794;23.302;2023-03-05T01:59:45;95008.03;;;4.07;80.59
70072;BME280;57434;42.794;23.302;2023-03-05T02:00:50;95131.63;;;4.91;80.63
70072;BME280;57434;42.794;23.302;2023-03-05T02:01:56;95096.59;;;4.66;80.81
70072;BME280;57434;42.794;23.302;2023-03-05T02:03:02;95136.84;;;4.98;80.83
70072;BME280;57434;42.794;23.302;2023-03-05T02:04:07;95132.38;;;5.00;80.73
70072;BME280;57434;42.794;23.302;2023-03-05T02:05:13;95115.84;;;4.78;80.74
70072;BME280;57434;42.794;23.302;2023-03-05T02:06:17;95133.47;;;4.94;81.13
70072;BME280;57434;42.794;23.302;2023-03-05T02:07:19;95064.69;;;4.52;81.05
70072;BME280;57434;42.794;23.302;2023-03-05T02:08:21;94984.63;;;3.81;80.69
70072;BME280;57434;42.794;23.302;2023-03-05T02:11:20;95143.28;;;5.04;80.41
70072;BME280;57434;42.794;23.302;2023-03-05T02:12:22;95143.94;;;4.99;80.08
70072;BME280;57434;42.794;23.302;2023-03-05T02:13:28;95139.22;;;4.72;80.04
70072;BME280;57434;42.794;23.302;2023-03-05T02:14:31;95144.25;;;5.01;79.95
70072;BME280;57434;42.794;23.302;2023-03-05T02:15:33;95156.00;;;4.87;80.21
70072;BME280;57434;42.794;23.302;2023-03-05T02:16:37;95144.41;;;4.88;80.30
70072;BME280;57434;42.794;23.302;2023-03-05T02:17:39;95139.31;;;4.87;80.34
70072;BME280;57434;42.794;23.302;2023-03-05T02:18:41;95109.69;;;4.74;80.46
70072;BME280;57434;42.794;23.302;2023-03-05T02:19:53;95137.47;;;4.84;80.62
70072;BME280;57434;42.794;23.302;2023-03-05T02:21:57;95139.31;;;4.87;80.53
70072;BME280;57434;42.794;23.302;2023-03-05T02:22:59;95116.16;;;4.81;80.59
70072;BME280;57434;42.794;23.302;2023-03-05T02:24:00;95136.41;;;4.90;80.73
70072;BME280;57434;42.794;23.302;2023-03-05T02:25:24;95160.16;;;5.00;80.55
70072;BME280;57434;42.794;23.302;2023-03-05T02:26:27;95151.53;;;4.98;80.49
70072;BME280;57434;42.794;23.302;2023-03-05T02:27:30;95056.56;;;4.30;80.64
70072;BME280;57434;42.794;23.302;2023-03-05T02:28:38;95128.50;;;4.79;80.47
70072;BME280;57434;42.794;23.302;2023-03-05T02:29:43;95120.69;;;4.69;80.69
70072;BME280;57434;42.794;23.302;2023-03-05T02:30:46;95082.31;;;4.40;80.78
70072;BME280;57434;42.794;23.302;2023-03-05T02:31:47;95151.66;;;4.86;80.75
70072;BME280;57434;42.794;23.302;2023-03-05T02:32:50;95007.44;;;3.85;80.89
70072;BME280;57434;42.794;23.302;2023-03-05T02:33:53;95094.66;;;4.39;80.98
70072;BME280;57434;42.794;23.302;2023-03-05T02:34:55;95131.97;;;4.65;81.07
70072;BME280;57434;42.794;23.302;2023-03-05T02:35:56;95136.59;;;4.68;81.32
70072;BME280;57434;42.794;23.302;2023-03-05T02:36:58;95152.91;;;4.85;81.36
70072;BME280;57434;42.794;23.302;2023-03-05T02:38:00;95133.94;;;4.74;81.12
70072;BME280;57434;42.794;23.302;2023-03-05T02:39:03;95119.59;;;4.66;80.95
70072;BME280;57434;42.794;23.302;2023-03-05T02:40:05;95147.81;;;4.83;81.10
70072;BME280;57434;42.794;23.302;2023-03-05T02:41:08;95157.69;;;4.84;81.25
70072;BME280;57434;42.794;23.302;2023-03-05T02:42:10;95107.44;;;4.55;81.21
70072;BME280;57434;42.794;23.302;2023-03-05T02:43:12;95138.44;;;4.71;81.43
70072;BME280;57434;42.794;23.302;2023-03-05T02:44:14;95159.09;;;4.79;81.58
70072;BME280;57434;42.794;23.302;2023-03-05T02:45:16;95160.63;;;4.81;81.69
70072;BME280;57434;42.794;23.302;2023-03-05T02:46:18;95146.41;;;4.78;81.87
70072;BME280;57434;42.794;23.302;2023-03-05T02:47:20;95142.44;;;4.70;81.76
70072;BME280;57434;42.794;23.302;2023-03-05T02:48:21;95155.38;;;4.83;81.66
70072;BME280;57434;42.794;23.302;2023-03-05T02:49:23;95153.22;;;4.87;81.45
70072;BME280;57434;42.794;23.302;2023-03-05T02:50:26;95018.06;;;3.96;81.17
70072;BME280;57434;42.794;23.302;2023-03-05T02:51:29;95119.91;;;4.59;81.35
70072;BME280;57434;42.794;23.302;2023-03-05T02:52:32;95133.19;;;4.64;81.37
70072;BME280;57434;42.794;23.302;2023-03-05T02:53:34;95157.22;;;4.76;81.39
70072;BME280;57434;42.794;23.302;2023-03-05T02:54:36;95151.88;;;4.73;82.06
70072;BME280;57434;42.794;23.302;2023-03-05T02:55:38;95091.59;;;4.28;81.76
70072;BME280;57434;42.794;23.302;2023-03-05T02:56:40;95096.81;;;4.35;81.69
70072;BME280;57434;42.794;23.302;2023-03-05T02:57:41;95162.03;;;4.76;81.67
70072;BME280;57434;42.794;23.302;2023-03-05T02:58:43;95164.34;;;4.77;81.77
70072;BME280;57434;42.794;23.302;2023-03-05T02:59:45;95156.31;;;4.79;81.75
70072;BME280;57434;42.794;23.302;2023-03-05T03:00:47;95123.31;;;4.54;81.64
70072;BME280;57434;42.794;23.302;2023-03-05T03:01:50;95169.59;;;4.75;81.70
70072;BME280;57434;42.794;23.302;2023-03-05T03:02:51;95106.69;;;4.27;81.69
70072;BME280;57434;42.794;23.302;2023-03-05T03:03:53;95126.41;;;4.47;81.72
70072;BME280;57434;42.794;23.302;2023-03-05T03:04:56;95154.66;;;4.73;81.70
70072;BME280;57434;42.794;23.302;2023-03-05T03:05:58;95140.59;;;4.58;81.78
70072;BME280;57434;42.794;23.302;2023-03-05T03:06:59;95149.41;;;4.66;81.88
70072;BME280;57434;42.794;23.302;2023-03-05T03:08:01;95156.94;;;4.74;82.02
70072;BME280;57434;42.794;23.302;2023-03-05T03:09:03;95154.66;;;4.73;82.05
70072;BME280;57434;42.794;23.302;2023-03-05T03:10:06;95150.94;;;4.67;81.90
70072;BME280;57434;42.794;23.302;2023-03-05T03:11:09;94997.13;;;3.67;81.84
70072;BME280;57434;42.794;23.302;2023-03-05T03:12:11;94950.91;;;3.28;82.14
70072;BME280;57434;42.794;23.302;2023-03-05T03:13:13;95149.25;;;4.51;82.24
70072;BME280;57434;42.794;23.302;2023-03-05T03:14:14;95139.84;;;4.49;82.61
70072;BME280;57434;42.794;23.302;2023-03-05T03:15:16;95163.59;;;4.59;82.48
70072;BME280;57434;42.794;23.302;2023-03-05T03:16:19;95148.16;;;4.49;82.72
70072;BME280;57434;42.794;23.302;2023-03-05T03:17:21;95094.06;;;4.07;82.59
70072;BME280;57434;42.794;23.302;2023-03-05T03:18:22;95147.75;;;4.41;82.88
70072;BME280;57434;42.794;23.302;2023-03-05T03:19:24;95100.72;;;4.10;82.99
70072;BME280;57434;42.794;23.302;2023-03-05T03:20:26;95160.06;;;4.58;83.06
70072;BME280;57434;42.794;23.302;2023-03-05T03:21:28;95190.75;;;4.55;82.98
70072;BME280;57434;42.794;23.302;2023-03-05T03:22:30;95157.91;;;4.53;82.75
70072;BME280;57434;42.794;23.302;2023-03-05T03:23:32;95157.28;;;4.49;83.10
70072;BME280;57434;42.794;23.302;2023-03-05T03:24:35;95035.81;;;3.71;83.26
70072;BME280;57434;42.794;23.302;2023-03-05T03:25:37;95147.56;;;4.54;83.14
70072;BME280;57434;42.794;23.302;2023-03-05T03:26:39;95016.41;;;3.62;82.79
70072;BME280;57434;42.794;23.302;2023-03-05T03:27:41;95155.41;;;4.55;82.99
70072;BME280;57434;42.794;23.302;2023-03-05T03:28:44;94812.63;;;2.29;82.68
70072;BME280;57434;42.794;23.302;2023-03-05T03:29:45;95165.75;;;4.55;82.91
70072;BME280;57434;42.794;23.302;2023-03-05T03:30:47;95187.22;;;4.63;82.90
70072;BME280;57434;42.794;23.302;2023-03-05T03:31:50;95162.06;;;4.67;82.90
70072;BME280;57434;42.794;23.302;2023-03-05T03:32:51;95156.34;;;4.70;82.77
70072;BME280;57434;42.794;23.302;2023-03-05T03:33:53;95121.63;;;4.48;82.42
70072;BME280;57434;42.794;23.302;2023-03-05T03:34:55;95106.88;;;4.14;82.22
70072;BME280;57434;42.794;23.302;2023-03-05T03:35:57;95141.84;;;4.57;82.27
70072;BME280;57434;42.794;23.302;2023-03-05T03:37:00;95134.13;;;4.52;82.25
70072;BME280;57434;42.794;23.302;2023-03-05T03:38:02;95156.19;;;4.65;82.48
70072;BME280;57434;42.794;23.302;2023-03-05T03:39:04;95159.91;;;4.71;82.57
70072;BME280;57434;42.794;23.302;2023-03-05T03:40:07;95065.69;;;4.03;82.16
70072;BME280;57434;42.794;23.302;2023-03-05T03:41:09;95164.38;;;4.68;82.13
70072;BME280;57434;42.794;23.302;2023-03-05T03:42:11;95124.91;;;4.37;81.79
70072;BME280;57434;42.794;23.302;2023-03-05T03:43:12;95153.72;;;4.67;81.98
70072;BME280;57434;42.794;23.302;2023-03-05T03:44:15;95133.06;;;4.22;81.52
70072;BME280;57434;42.794;23.302;2023-03-05T03:45:18;95011.94;;;3.64;81.85
70072;BME280;57434;42.794;23.302;2023-03-05T03:46:20;95156.66;;;4.54;82.23
70072;BME280;57434;42.794;23.302;2023-03-05T03:47:21;95155.91;;;4.44;82.47
70072;BME280;57434;42.794;23.302;2023-03-05T03:48:24;95169.81;;;4.35;82.76
70072;BME280;57434;42.794;23.302;2023-03-05T03:49:25;95149.13;;;4.27;82.70
70072;BME280;57434;42.794;23.302;2023-03-05T03:50:27;95157.47;;;4.36;82.78
70072;BME280;57434;42.794;23.302;2023-03-05T03:51:29;95152.97;;;4.30;83.02
70072;BME280;57434;42.794;23.302;2023-03-05T03:52:31;95161.16;;;4.33;82.54
70072;BME280;57434;42.794;23.302;2023-03-05T03:53:33;95157.16;;;4.43;82.39
70072;BME280;57434;42.794;23.302;2023-03-05T03:54:35;95061.25;;;3.88;82.12
70072;BME280;57434;42.794;23.302;2023-03-05T03:55:38;95107.31;;;4.22;81.56
70072;BME280;57434;42.794;23.302;2023-03-05T03:56:40;94948.44;;;3.21;80.92
70072;BME280;57434;42.794;23.302;2023-03-05T03:57:42;95146.63;;;4.48;81.10
70072;BME280;57434;42.794;23.302;2023-03-05T03:58:44;95151.13;;;4.45;81.20
70072;BME280;57434;42.794;23.302;2023-03-05T03:59:46;95136.78;;;4.28;81.40
70072;BME280;57434;42.794;23.302;2023-03-05T04:00:48;95155.91;;;4.44;81.67
70072;BME280;57434;42.794;23.302;2023-03-05T04:01:50;95142.50;;;4.43;81.92
70072;BME280;57434;42.794;23.302;2023-03-05T04:02:52;95093.16;;;4.01;81.51
70072;BME280;57434;42.794;23.302;2023-03-05T04:03:53;94882.38;;;2.64;81.55
70072;BME280;57434;42.794;23.302;2023-03-05T04:04:55;95143.41;;;4.31;81.79
70072;BME280;57434;42.794;23.302;2023-03-05T04:05:57;95140.78;;;4.27;81.72
70072;BME280;57434;42.794;23.302;2023-03-05T04:06:59;95093.16;;;4.01;81.78
70072;BME280;57434;42.794;23.302;2023-03-05T04:08:01;95114.75;;;4.16;81.47
70072;BME280;57434;42.794;23.302;2023-03-05T04:09:03;95110.72;;;4.17;81.29
70072;BME280;57434;42.794;23.302;2023-03-05T04:10:06;95109.19;;;4.06;81.13
70072;BME280;57434;42.794;23.302;2023-03-05T04:11:08;95107.66;;;4.15;81.23
70072;BME280;57434;42.794;23.302;2023-03-05T04:12:09;95040.88;;;3.72;81.36
70072;BME280;57434;42.794;23.302;2023-03-05T04:13:11;95131.53;;;4.30;81.29
70072;BME280;57434;42.794;23.302;2023-03-05T04:14:13;95142.97;;;4.41;81.52
70072;BME280;57434;42.794;23.302;2023-03-05T04:15:16;95121.66;;;4.20;81.31
70072;BME280;57434;42.794;23.302;2023-03-05T04:16:18;95159.78;;;4.38;81.63
70072;BME280;57434;42.794;23.302;2023-03-05T04:17:20;95127.22;;;4.20;81.44
70072;BME280;57434;42.794;23.302;2023-03-05T04:18:23;95113.97;;;3.97;81.37
70072;BME280;57434;42.794;23.302;2023-03-05T04:19:25;95020.84;;;3.41;81.36
70072;BME280;57434;42.794;23.302;2023-03-05T04:20:27;95143.41;;;4.22;81.47
70072;BME280;57434;42.794;23.302;2023-03-05T04:21:28;95150.66;;;4.37;81.18
70072;BME280;57434;42.794;23.302;2023-03-05T04:22:30;95154.38;;;4.34;80.42
70072;BME280;57434;42.794;23.302;2023-03-05T04:23:32;95156.38;;;4.25;80.37
70072;BME280;57434;42.794;23.302;2023-03-05T04:24:34;95138.34;;;4.11;80.71
70072;BME280;57434;42.794;23.302;2023-03-05T04:25:36;95135.38;;;4.24;80.66
70072;BME280;57434;42.794;23.302;2023-03-05T04:26:38;95137.09;;;4.21;80.58
70072;BME280;57434;42.794;23.302;2023-03-05T04:27:40;95150.50;;;4.32;80.51
70072;BME280;57434;42.794;23.302;2023-03-05T04:28:42;95153.28;;;4.41;80.32
70072;BME280;57434;42.794;23.302;2023-03-05T04:29:44;95182.75;;;4.48;79.90
70072;BME280;57434;42.794;23.302;2023-03-05T04:30:46;95156.97;;;4.47;79.59
70072;BME280;57434;42.794;23.302;2023-03-05T04:31:48;95135.09;;;4.40;79.25
70072;BME280;57434;42.794;23.302;2023-03-05T04:32:49;95156.53;;;4.39;79.18
70072;BME280;57434;42.794;23.302;2023-03-05T04:33:51;95097.94;;;3.92;78.93
70072;BME280;57434;42.794;23.302;2023-03-05T04:34:53;95160.53;;;4.48;78.69
70072;BME280;57434;42.794;23.302;2023-03-05T04:35:55;95133.22;;;4.28;78.32
70072;BME280;57434;42.794;23.302;2023-03-05T04:36:56;95094.41;;;3.91;78.03
70072;BME280;57434;42.794;23.302;2023-03-05T04:37:58;95158.06;;;4.31;78.33
70072;BME280;57434;42.794;23.302;2023-03-05T04:39:00;95158.53;;;4.30;78.09
70072;BME280;57434;42.794;23.302;2023-03-05T04:40:02;95157.91;;;4.26;78.00
70072;BME280;57434;42.794;23.302;2023-03-05T04:41:04;95155.94;;;4.17;77.84
70072;BME280;57434;42.794;23.302;2023-03-05T04:42:06;95130.16;;;3.80;77.91
70072;BME280;57434;42.794;23.302;2023-03-05T04:43:08;95159.00;;;4.10;78.02
70072;BME280;57434;42.794;23.302;2023-03-05T04:44:10;95150.81;;;4.06;78.06
70072;BME280;57434;42.794;23.302;2023-03-05T04:45:12;95115.47;;;3.70;78.08
70072;BME280;57434;42.794;23.302;2023-03-05T04:46:13;95109.63;;;3.68;78.22
70072;BME280;57434;42.794;23.302;2023-03-05T04:47:16;95004.63;;;3.03;78.18
70072;BME280;57434;42.794;23.302;2023-03-05T04:48:18;95127.69;;;3.82;78.43
70072;BME280;57434;42.794;23.302;2023-03-05T04:49:20;95110.25;;;3.72;78.04
70072;BME280;57434;42.794;23.302;2023-03-05T04:50:22;95152.38;;;4.07;78.10
70072;BME280;57434;42.794;23.302;2023-03-05T04:51:25;95155.44;;;4.09;77.86
70072;BME280;57434;42.794;23.302;2023-03-05T04:52:27;95154.81;;;4.05;77.60
70072;BME280;57434;42.794;23.302;2023-03-05T04:53:28;95172.25;;;3.97;77.67
70072;BME280;57434;42.794;23.302;2023-03-05T04:54:30;95153.28;;;4.04;77.51
70072;BME280;57434;42.794;23.302;2023-03-05T04:55:32;95154.50;;;3.76;77.64
70072;BME280;57434;42.794;23.302;2023-03-05T04:56:34;95153.44;;;4.01;77.76
70072;BME280;57434;42.794;23.302;2023-03-05T04:57:36;95150.34;;;3.99;78.07
70072;BME280;57434;42.794;23.302;2023-03-05T04:58:38;95132.59;;;3.78;78.36
70072;BME280;57434;42.794;23.302;2023-03-05T04:59:40;95146.03;;;3.89;78.27
70072;BME280;57434;42.794;23.302;2023-03-05T05:00:42;95147.72;;;3.95;78.29
70072;BME280;57434;42.794;23.302;2023-03-05T05:01:44;95147.91;;;3.92;78.23
70072;BME280;57434;42.794;23.302;2023-03-05T05:02:48;95151.59;;;3.89;78.33
70072;BME280;57434;42.794;23.302;2023-03-05T05:03:50;95064.88;;;3.39;78.56
70072;BME280;57434;42.794;23.302;2023-03-05T05:04:53;95135.72;;;3.89;78.62
70072;BME280;57434;42.794;23.302;2023-03-05T05:05:56;95146.63;;;3.93;78.42
70072;BME280;57434;42.794;23.302;2023-03-05T05:06:58;95109.03;;;3.64;78.26
70072;BME280;57434;42.794;23.302;2023-03-05T05:08:00;95151.44;;;4.01;78.43
70072;BME280;57434;42.794;23.302;2023-03-05T05:09:02;94969.31;;;2.76;78.09
70072;BME280;57434;42.794;23.302;2023-03-05T05:10:05;95151.13;;;3.99;78.53
70072;BME280;57434;42.794;23.302;2023-03-05T05:11:07;95148.34;;;3.99;78.38
70072;BME280;57434;42.794;23.302;2023-03-05T05:12:11;95013.88;;;3.09;78.36
70072;BME280;57434;42.794;23.302;2023-03-05T05:13:13;95156.97;;;4.01;78.58
70072;BME280;57434;42.794;23.302;2023-03-05T05:14:15;95133.53;;;3.75;78.57
70072;BME280;57434;42.794;23.302;2023-03-05T05:15:17;95156.81;;;3.96;78.92
70072;BME280;57434;42.794;23.302;2023-03-05T05:16:19;95131.06;;;3.86;78.97
70072;BME280;57434;42.794;23.302;2023-03-05T05:17:21;95150.97;;;3.94;78.69
70072;BME280;57434;42.794;23.302;2023-03-05T05:18:23;94867.78;;;2.15;78.65
70072;BME280;57434;42.794;23.302;2023-03-05T05:19:25;95151.88;;;4.00;78.92
70072;BME280;57434;42.794;23.302;2023-03-05T05:20:27;95139.72;;;3.88;79.58
70072;BME280;57434;42.794;23.302;2023-03-05T05:21:29;95166.84;;;4.02;79.74
70072;BME280;57434;42.794;23.302;2023-03-05T05:22:32;95140.63;;;3.94;79.66
70072;BME280;57434;42.794;23.302;2023-03-05T05:23:34;94972.56;;;2.84;79.12
70072;BME280;57434;42.794;23.302;2023-03-05T05:24:36;95140.00;;;3.99;79.01
70072;BME280;57434;42.794;23.302;2023-03-05T05:25:37;95124.91;;;3.91;78.77
70072;BME280;57434;42.794;23.302;2023-03-05T05:26:39;95002.50;;;3.07;78.37
70072;BME280;57434;42.794;23.302;2023-03-05T05:27:42;95138.81;;;3.91;78.60
70072;BME280;57434;42.794;23.302;2023-03-05T05:28:44;95154.69;;;4.18;78.55
70072;BME280;57434;42.794;23.302;2023-03-05T05:29:46;95162.69;;;4.25;78.35
70072;BME280;57434;42.794;23.302;2023-03-05T05:30:48;95158.53;;;4.30;78.19
70072;BME280;57434;42.794;23.302;2023-03-05T05:31:50;95155.91;;;4.26;77.94
70072;BME280;57434;42.794;23.302;2023-03-05T05:32:52;95155.91;;;4.26;78.04
70072;BME280;57434;42.794;23.302;2023-03-05T05:33:53;95164.69;;;4.25;77.83
70072;BME280;57434;42.794;23.302;2023-03-05T05:34:56;95075.25;;;3.66;77.96
70072;BME280;57434;42.794;23.302;2023-03-05T05:35:59;95109.81;;;3.92;78.02